French Village, Canada
Current Conditions -  °F | °C
As of 5:00 AM on Saturday 27 Dec 2014 (Local Time) from CYHZ Reporting Station
Clear Clear  
Wind Chill: -2°   Ceiling: Unl
Heat Index:   Visibility: 15mi
Dew Point: -3°   Wind: 12mph
Humidity: 70%   Direction: 290°WNW
Pressure: 29.89"   Gusts: NA
Location:  44.7°N, 63.88°W
Report Text: CYHZ 270900Z 29010KT 15SM SKC 02/M03 A2989 RMK SLP127
Loading
Personal Weather Stations






























Interactive Weather Map New forecast layout! Learn more

10-Day Weather Forecast

Advertisements
Track Severe Weather on mobile